createdAt,value
2019-05-18T00:00:16.074Z,91.90
2019-05-18T00:03:20.998Z,92.10
2019-05-18T00:06:26.061Z,92.20
2019-05-18T00:09:31.051Z,92.30
2019-05-18T00:12:36.182Z,92.30
2019-05-18T00:15:41.338Z,92.30
2019-05-18T00:18:46.287Z,92.40
2019-05-18T00:21:51.223Z,92.40
2019-05-18T00:24:56.130Z,92.40
2019-05-18T00:28:01.768Z,92.30
2019-05-18T00:31:06.917Z,92.20
2019-05-18T00:34:11.981Z,92.20
2019-05-18T00:37:17.232Z,92.20
2019-05-18T00:40:22.226Z,92.20
2019-05-18T00:43:27.325Z,92.20
2019-05-18T00:46:32.242Z,92.20
2019-05-18T00:49:37.333Z,92.60
2019-05-18T00:52:42.401Z,92.90
2019-05-18T00:55:47.454Z,93.10
2019-05-18T00:58:52.353Z,93.20
2019-05-18T01:01:57.368Z,93.40
2019-05-18T01:05:02.355Z,93.50
2019-05-18T01:08:07.377Z,93.60
2019-05-18T01:11:12.407Z,93.70
2019-05-18T01:14:17.470Z,93.70
2019-05-18T01:17:22.467Z,93.90
2019-05-18T01:20:27.547Z,94.00
2019-05-18T01:23:32.468Z,94.10
2019-05-18T01:26:37.457Z,94.20
2019-05-18T01:29:42.481Z,94.30
2019-05-18T01:32:47.490Z,94.30
2019-05-18T01:35:52.406Z,94.50
2019-05-18T01:38:57.401Z,94.60
2019-05-18T01:42:02.353Z,95.00
2019-05-18T01:45:16.316Z,94.90
2019-05-18T01:48:14.796Z,94.80
2019-05-18T01:51:20.029Z,95.00
2019-05-18T01:54:24.961Z,95.10
2019-05-18T01:57:30.029Z,95.20
2019-05-18T02:00:35.036Z,95.70
2019-05-18T02:03:40.051Z,95.40
2019-05-18T02:06:45.061Z,95.50
2019-05-18T02:09:50.014Z,95.60
2019-05-18T02:12:55.116Z,95.70
2019-05-18T02:16:00.038Z,95.80
2019-05-18T02:19:05.050Z,96.00
2019-05-18T02:22:09.968Z,96.20
2019-05-18T02:25:15.738Z,96.20
2019-05-18T02:28:20.741Z,96.30
2019-05-18T02:31:25.674Z,96.40
2019-05-18T02:34:30.599Z,96.50
2019-05-18T02:37:35.686Z,96.60
2019-05-18T02:40:40.696Z,96.70
2019-05-18T02:43:45.690Z,96.90
2019-05-18T02:46:50.707Z,97.00
2019-05-18T02:49:55.860Z,97.10
2019-05-18T02:53:00.870Z,97.10
2019-05-18T02:56:05.869Z,97.30
2019-05-18T02:59:10.862Z,97.30
2019-05-18T03:02:15.792Z,97.40
2019-05-18T03:05:20.861Z,97.50
2019-05-18T03:08:26.014Z,97.60
2019-05-18T03:11:31.079Z,97.90
2019-05-18T03:14:36.099Z,97.90
2019-05-18T03:17:41.116Z,98.00
2019-05-18T03:20:46.181Z,98.10
2019-05-18T03:23:51.186Z,98.10
2019-05-18T03:26:56.119Z,98.10
2019-05-18T03:30:01.122Z,98.10
2019-05-18T03:33:06.259Z,98.10
2019-05-18T03:36:11.238Z,98.20
2019-05-18T03:39:16.230Z,98.20
2019-05-18T03:42:21.218Z,98.20
2019-05-18T03:45:26.258Z,98.30
2019-05-18T03:48:31.304Z,98.30
2019-05-18T03:51:36.222Z,98.40
2019-05-18T03:54:41.159Z,98.30
2019-05-18T03:57:46.222Z,98.30
2019-05-18T04:00:51.143Z,98.20
2019-05-18T04:03:56.075Z,98.10
2019-05-18T04:07:00.978Z,98.00
2019-05-18T04:10:06.921Z,98.10
2019-05-18T04:13:11.933Z,98.10
2019-05-18T04:16:16.877Z,98.10
2019-05-18T04:19:21.893Z,98.10
2019-05-18T04:22:26.856Z,98.00
2019-05-18T04:25:31.880Z,98.00
2019-05-18T04:28:36.798Z,98.00
2019-05-18T04:31:41.787Z,97.90
2019-05-18T04:34:47.757Z,97.90
2019-05-18T04:37:52.822Z,97.80
2019-05-18T04:40:57.802Z,97.80
2019-05-18T04:44:02.810Z,97.80
2019-05-18T04:47:07.737Z,97.70
2019-05-18T04:50:12.838Z,97.70
2019-05-18T04:53:17.827Z,97.70
2019-05-18T04:56:22.825Z,97.80
2019-05-18T04:59:27.779Z,97.50
2019-05-18T05:02:32.768Z,97.30
2019-05-18T05:05:37.699Z,97.60
2019-05-18T05:08:42.629Z,96.90
2019-05-18T05:11:47.621Z,96.30
2019-05-18T05:14:52.551Z,95.90
2019-05-18T05:17:58.042Z,95.80
2019-05-18T05:21:03.041Z,96.00
2019-05-18T05:24:08.102Z,96.10
2019-05-18T05:27:13.992Z,95.90
2019-05-18T05:30:19.066Z,95.70
2019-05-18T05:33:24.893Z,95.70
2019-05-18T05:36:29.880Z,95.40
2019-05-18T05:39:35.998Z,95.40
2019-05-18T05:42:40.995Z,95.50
2019-05-18T05:45:46.104Z,95.70
2019-05-18T05:48:51.133Z,95.80
2019-05-18T05:51:56.114Z,95.90
2019-05-18T05:55:01.059Z,95.90
2019-05-18T05:58:05.983Z,95.80
2019-05-18T06:01:11.049Z,95.90
2019-05-18T06:04:16.043Z,95.90
2019-05-18T06:07:20.977Z,95.90
2019-05-18T06:10:26.054Z,95.80
2019-05-18T06:13:31.126Z,95.90
2019-05-18T06:16:36.050Z,95.80
2019-05-18T06:19:41.065Z,95.70
2019-05-18T06:22:46.307Z,95.40
2019-05-18T06:25:51.455Z,95.10
2019-05-18T06:28:56.441Z,94.70
2019-05-18T06:32:01.422Z,94.50
2019-05-18T06:35:06.515Z,94.40
2019-05-18T06:38:11.501Z,94.00
2019-05-18T06:41:16.414Z,93.80
2019-05-18T06:44:21.343Z,93.70
2019-05-18T06:47:26.413Z,93.50
2019-05-18T06:50:31.903Z,93.10
2019-05-18T06:53:36.972Z,92.80
2019-05-18T06:56:42.655Z,92.50
2019-05-18T06:59:47.998Z,92.50
2019-05-18T07:02:52.988Z,92.30
2019-05-18T07:05:57.906Z,92.10
2019-05-18T07:09:03.114Z,92.10
2019-05-18T07:12:08.659Z,91.80
2019-05-18T07:15:14.849Z,91.80
2019-05-18T07:18:19.775Z,91.80
2019-05-18T07:21:24.777Z,91.50
2019-05-18T07:24:29.778Z,91.30
2019-05-18T07:27:34.831Z,91.30
2019-05-18T07:30:39.774Z,91.10
2019-05-18T07:33:44.859Z,90.80
2019-05-18T07:36:49.938Z,90.70
2019-05-18T07:39:54.962Z,90.50
2019-05-18T07:42:59.966Z,90.20
2019-05-18T07:46:04.950Z,90.00
2019-05-18T07:49:09.999Z,90.00
2019-05-18T07:52:17.259Z,89.80
2019-05-18T07:55:21.618Z,89.90
2019-05-18T07:58:26.742Z,90.00
2019-05-18T08:01:32.702Z,89.20
2019-05-18T08:04:39.845Z,88.00
2019-05-18T08:07:45.069Z,88.10
2019-05-18T08:10:50.016Z,87.80
2019-05-18T08:13:54.935Z,87.40
2019-05-18T08:17:00.002Z,87.40
2019-05-18T08:20:05.296Z,86.80
2019-05-18T08:23:10.555Z,86.60
2019-05-18T08:26:15.593Z,86.40
2019-05-18T08:29:20.915Z,86.10
2019-05-18T08:32:26.091Z,86.00
2019-05-18T08:35:31.173Z,85.50
2019-05-18T08:38:36.105Z,85.30
2019-05-18T08:41:41.115Z,84.50
2019-05-18T08:44:46.112Z,83.90
2019-05-18T08:47:51.133Z,82.90
2019-05-18T08:50:56.124Z,81.70
2019-05-18T08:54:01.132Z,81.20
2019-05-18T08:57:06.219Z,81.30
2019-05-18T09:00:11.707Z,81.50
2019-05-18T09:03:16.718Z,81.20
2019-05-18T09:06:21.708Z,80.60
2019-05-18T09:09:26.782Z,80.50
2019-05-18T09:12:31.771Z,80.20
2019-05-18T09:15:36.840Z,79.50
2019-05-18T09:18:41.780Z,79.50
2019-05-18T09:21:46.862Z,79.20
2019-05-18T09:24:52.013Z,78.60
2019-05-18T09:27:56.935Z,78.60
2019-05-18T09:31:01.862Z,78.20
2019-05-18T09:34:06.770Z,77.90
2019-05-18T09:37:11.758Z,77.50
2019-05-18T09:40:17.642Z,77.20
2019-05-18T09:43:22.636Z,76.50
2019-05-18T09:46:27.588Z,76.10
2019-05-18T09:49:32.590Z,75.90
2019-05-18T09:52:46.234Z,76.20
2019-05-18T09:55:44.270Z,75.70
2019-05-18T09:58:49.413Z,74.40
2019-05-18T10:01:54.406Z,73.10
2019-05-18T10:04:59.322Z,72.50
2019-05-18T10:08:04.409Z,71.40
2019-05-18T10:11:09.580Z,70.90
2019-05-18T10:14:14.562Z,69.10
2019-05-18T10:17:19.569Z,69.00
2019-05-18T10:20:24.565Z,68.20
2019-05-18T10:23:29.609Z,69.30
2019-05-18T10:26:34.635Z,69.90
2019-05-18T10:29:39.542Z,69.80
2019-05-18T10:32:44.770Z,69.90
2019-05-18T10:35:49.801Z,69.30
2019-05-18T10:38:54.748Z,69.50
2019-05-18T10:41:59.892Z,68.60
2019-05-18T10:45:05.378Z,68.70
2019-05-18T10:48:10.617Z,68.80
2019-05-18T10:51:15.636Z,68.60
2019-05-18T10:54:21.216Z,68.40
2019-05-18T10:57:26.197Z,67.70
2019-05-18T11:00:31.199Z,67.70
2019-05-18T11:03:36.266Z,67.40
2019-05-18T11:06:41.321Z,67.10
2019-05-18T11:09:46.498Z,65.90
2019-05-18T11:12:51.614Z,65.20
2019-05-18T11:15:56.703Z,64.50
2019-05-18T11:19:01.792Z,63.80
2019-05-18T11:22:06.920Z,60.90
2019-05-18T11:25:12.045Z,59.90
2019-05-18T11:28:17.055Z,59.10
2019-05-18T11:31:22.098Z,59.30
2019-05-18T11:34:27.278Z,58.60
2019-05-18T11:37:32.197Z,57.70
2019-05-18T11:40:37.291Z,57.90
2019-05-18T11:43:42.230Z,57.80
2019-05-18T11:46:47.378Z,57.60
2019-05-18T11:49:52.619Z,57.50
2019-05-18T11:52:57.961Z,57.60
2019-05-18T11:56:03.261Z,58.20
2019-05-18T11:59:08.182Z,57.50
2019-05-18T12:02:13.188Z,56.50
2019-05-18T12:05:18.249Z,57.20
2019-05-18T12:08:23.342Z,57.40
2019-05-18T12:11:28.357Z,57.30
2019-05-18T12:14:33.400Z,58.00
2019-05-18T12:17:38.507Z,58.50
2019-05-18T12:20:43.567Z,58.70
2019-05-18T12:23:49.412Z,58.70
2019-05-18T12:26:54.502Z,58.80
2019-05-18T12:29:59.486Z,58.30
2019-05-18T12:33:04.563Z,57.80
2019-05-18T12:36:09.650Z,58.20
2019-05-18T12:39:14.661Z,58.40
2019-05-18T12:42:19.734Z,59.00
2019-05-18T12:45:24.823Z,59.00
2019-05-18T12:48:29.741Z,58.90
2019-05-18T12:51:34.763Z,58.80
2019-05-18T12:54:46.586Z,58.20
2019-05-18T12:57:46.541Z,58.20
2019-05-18T13:00:51.674Z,58.50
2019-05-18T13:03:57.322Z,58.50
2019-05-18T13:07:02.474Z,57.80
2019-05-18T13:10:09.515Z,57.50
2019-05-18T13:13:14.498Z,57.30
2019-05-18T13:16:19.564Z,57.70
2019-05-18T13:19:24.634Z,57.60
2019-05-18T13:22:29.548Z,58.00
2019-05-18T13:25:34.638Z,57.80
2019-05-18T13:28:39.553Z,57.20
2019-05-18T13:31:44.658Z,57.70
2019-05-18T13:34:49.580Z,57.90
2019-05-18T13:37:54.527Z,57.40
2019-05-18T13:40:59.681Z,56.20
2019-05-18T13:44:04.861Z,55.40
2019-05-18T13:47:09.785Z,54.80
2019-05-18T13:50:16.559Z,55.40
2019-05-18T13:53:21.497Z,55.70
2019-05-18T13:56:26.882Z,56.10
2019-05-18T13:59:31.942Z,56.20
2019-05-18T14:02:37.105Z,56.00
2019-05-18T14:05:42.596Z,55.00
2019-05-18T14:08:47.498Z,54.90
2019-05-18T14:11:52.888Z,55.10
2019-05-18T14:14:57.816Z,55.70
2019-05-18T14:18:03.157Z,55.70
2019-05-18T14:21:08.210Z,54.60
2019-05-18T14:24:14.359Z,54.90
2019-05-18T14:27:19.359Z,54.90
2019-05-18T14:30:24.842Z,54.90
2019-05-18T14:33:29.776Z,54.40
2019-05-18T14:36:36.447Z,54.20
2019-05-18T14:39:41.365Z,54.30
2019-05-18T14:42:46.665Z,55.30
2019-05-18T14:45:51.732Z,55.80
2019-05-18T14:48:56.967Z,55.40
2019-05-18T14:52:02.160Z,54.80
2019-05-18T14:55:07.482Z,54.80
2019-05-18T14:58:12.639Z,53.20
2019-05-18T15:01:17.799Z,52.50
2019-05-18T15:04:22.958Z,52.90
2019-05-18T15:07:28.145Z,53.30
2019-05-18T15:10:33.158Z,53.00
2019-05-18T15:13:38.273Z,53.10
2019-05-18T15:16:43.487Z,54.10
2019-05-18T15:19:48.508Z,54.70
2019-05-18T15:22:53.878Z,54.80
2019-05-18T15:25:58.899Z,55.00
2019-05-18T15:29:04.056Z,55.20
2019-05-18T15:32:09.050Z,55.10
2019-05-18T15:35:17.067Z,54.30
2019-05-18T15:38:21.994Z,53.70
2019-05-18T15:41:28.963Z,53.00
2019-05-18T15:44:34.104Z,52.00
2019-05-18T15:47:39.237Z,52.10
2019-05-18T15:50:45.955Z,52.30
2019-05-18T15:53:51.134Z,51.40
2019-05-18T15:56:56.264Z,51.20
2019-05-18T16:00:01.321Z,52.10
2019-05-18T16:03:06.549Z,52.40
2019-05-18T16:06:11.637Z,52.50
2019-05-18T16:09:16.933Z,51.90
2019-05-18T16:12:22.027Z,52.50
2019-05-18T16:15:27.248Z,53.00
2019-05-18T16:18:32.353Z,53.40
2019-05-18T16:21:37.619Z,52.80
2019-05-18T16:24:42.553Z,52.90
2019-05-18T16:27:47.833Z,52.90
2019-05-18T16:30:52.885Z,52.80
2019-05-18T16:33:58.714Z,52.90
2019-05-18T16:37:03.906Z,52.30
2019-05-18T16:40:10.630Z,51.70
2019-05-18T16:43:15.742Z,52.10
2019-05-18T16:46:20.729Z,52.20
2019-05-18T16:49:26.055Z,52.50
2019-05-18T16:52:31.162Z,52.80
2019-05-18T16:55:37.005Z,53.10
2019-05-18T16:58:42.078Z,53.00
2019-05-18T17:01:47.272Z,53.10
2019-05-18T17:04:52.409Z,53.10
2019-05-18T17:07:57.462Z,53.20
2019-05-18T17:11:02.669Z,53.50
2019-05-18T17:14:07.947Z,53.60
2019-05-18T17:17:13.118Z,53.50
2019-05-18T17:20:18.698Z,53.70
2019-05-18T17:23:23.681Z,53.80
2019-05-18T17:26:28.982Z,54.10
2019-05-18T17:29:33.897Z,54.40
2019-05-18T17:32:39.137Z,54.40
2019-05-18T17:35:59.343Z,54.50
2019-05-18T17:38:50.905Z,54.10
2019-05-18T17:41:56.081Z,54.40
2019-05-18T17:45:01.326Z,54.60
2019-05-18T17:48:06.550Z,55.10
2019-05-18T17:51:11.702Z,55.60
2019-05-18T17:54:16.742Z,55.80
2019-05-18T17:57:21.779Z,55.50
2019-05-18T18:00:27.057Z,55.10
2019-05-18T18:03:32.203Z,55.40
2019-05-18T18:06:37.170Z,55.90
2019-05-18T18:09:42.270Z,56.20
2019-05-18T18:12:47.501Z,56.50
2019-05-18T18:15:52.730Z,56.90
2019-05-18T18:18:58.003Z,57.30
2019-05-18T18:22:03.198Z,57.60
2019-05-18T18:25:08.493Z,57.90
2019-05-18T18:28:13.583Z,58.30
2019-05-18T18:31:18.799Z,58.50
2019-05-18T18:34:23.814Z,58.90
2019-05-18T18:37:29.745Z,59.00
2019-05-18T18:40:34.968Z,59.30
2019-05-18T18:43:40.151Z,59.50
2019-05-18T18:46:45.222Z,59.60
2019-05-18T18:49:50.369Z,59.80
2019-05-18T18:52:55.434Z,60.10
2019-05-18T18:56:00.797Z,60.50
2019-05-18T18:59:05.980Z,60.60
2019-05-18T19:02:11.541Z,61.70
2019-05-18T19:05:16.662Z,61.40
2019-05-18T19:08:21.703Z,61.80
2019-05-18T19:11:26.847Z,62.20
2019-05-18T19:14:31.888Z,63.40
2019-05-18T19:17:36.927Z,62.80
2019-05-18T19:20:42.054Z,63.00
2019-05-18T19:23:47.226Z,63.10
2019-05-18T19:26:52.308Z,63.40
2019-05-18T19:29:57.575Z,63.60
2019-05-18T19:33:02.522Z,63.90
2019-05-18T19:36:07.583Z,64.20
2019-05-18T19:39:13.789Z,64.60
2019-05-18T19:42:18.801Z,65.00
2019-05-18T19:45:24.333Z,65.20
2019-05-18T19:48:29.562Z,65.70
2019-05-18T19:51:34.524Z,66.10
2019-05-18T19:54:39.777Z,66.50
2019-05-18T19:57:45.106Z,66.90
2019-05-18T20:00:50.063Z,67.20
2019-05-18T20:03:55.060Z,67.40
2019-05-18T20:07:00.483Z,67.60
2019-05-18T20:10:05.987Z,68.00
2019-05-18T20:13:11.361Z,68.20
2019-05-18T20:16:16.604Z,68.70
2019-05-18T20:19:21.839Z,68.90
2019-05-18T20:22:26.976Z,69.10
2019-05-18T20:25:33.528Z,69.60
2019-05-18T20:28:38.848Z,70.20
2019-05-18T20:31:44.064Z,70.60
2019-05-18T20:34:49.218Z,70.90
2019-05-18T20:37:54.450Z,71.30
2019-05-18T20:40:59.623Z,71.80
2019-05-18T20:44:05.001Z,72.40
2019-05-18T20:47:10.269Z,73.00
2019-05-18T20:50:16.977Z,73.60
2019-05-18T20:53:22.084Z,74.10
2019-05-18T20:56:27.335Z,74.20
2019-05-18T20:59:33.103Z,74.30
2019-05-18T21:02:38.217Z,74.80
2019-05-18T21:05:43.316Z,74.90
2019-05-18T21:08:48.305Z,75.00
2019-05-18T21:11:53.431Z,74.90
2019-05-18T21:14:58.414Z,75.20
2019-05-18T21:18:03.559Z,75.40
2019-05-18T21:21:08.456Z,75.50
2019-05-18T21:24:13.398Z,76.10
2019-05-18T21:27:18.592Z,76.50
2019-05-18T21:30:23.701Z,77.00
2019-05-18T21:33:28.746Z,77.20
2019-05-18T21:36:33.872Z,77.80
2019-05-18T21:39:38.905Z,78.30
2019-05-18T21:42:43.857Z,78.60
2019-05-18T21:45:48.761Z,79.20
2019-05-18T21:48:53.807Z,79.50
2019-05-18T21:54:02.254Z,80.20
2019-05-18T21:57:07.312Z,81.20
2019-05-18T22:00:13.093Z,81.60
2019-05-18T22:03:18.084Z,82.10
2019-05-18T22:06:23.168Z,82.20
2019-05-18T22:09:28.157Z,82.20
2019-05-18T22:12:33.247Z,82.70
2019-05-18T22:15:38.228Z,83.20
2019-05-18T22:18:43.483Z,83.80
2019-05-18T22:21:48.468Z,84.20
2019-05-18T22:24:53.332Z,84.70
2019-05-18T22:27:58.136Z,85.00
2019-05-18T22:31:03.224Z,85.20
2019-05-18T22:34:07.939Z,85.70
2019-05-18T22:37:12.753Z,86.00
2019-05-18T22:40:17.826Z,86.00
2019-05-18T22:43:22.545Z,86.70
2019-05-18T22:46:27.330Z,86.90
2019-05-18T22:49:32.024Z,87.40
2019-05-18T22:52:37.116Z,88.00
2019-05-18T22:55:41.857Z,88.50
2019-05-18T22:58:46.528Z,89.60
2019-05-18T23:01:51.309Z,89.70
2019-05-18T23:04:57.230Z,90.00
2019-05-18T23:08:01.904Z,90.20
2019-05-18T23:11:06.678Z,90.30
2019-05-18T23:14:11.407Z,90.40
2019-05-18T23:17:16.130Z,90.60
2019-05-18T23:20:20.873Z,90.70
2019-05-18T23:23:25.625Z,90.80
2019-05-18T23:26:30.352Z,90.90
2019-05-18T23:29:35.114Z,91.10
2019-05-18T23:32:39.881Z,91.20
2019-05-18T23:35:44.530Z,91.30
2019-05-18T23:38:49.256Z,91.40
2019-05-18T23:41:53.880Z,91.60
2019-05-18T23:44:58.533Z,91.60
2019-05-18T23:48:03.262Z,91.60
2019-05-18T23:51:08.010Z,91.60
2019-05-18T23:54:12.679Z,91.80
2019-05-18T23:57:17.317Z,91.70
